createdAt,value
2023-04-08T00:01:01.202Z,31.77
2023-04-08T00:03:28.447Z,32.45
2023-04-08T00:05:55.585Z,32.55
2023-04-08T00:08:22.577Z,32.42
2023-04-08T00:10:49.586Z,32.58
2023-04-08T00:13:16.528Z,32.78
2023-04-08T00:15:43.491Z,34.30
2023-04-08T00:18:10.535Z,34.35
2023-04-08T00:20:37.526Z,34.17
2023-04-08T00:23:04.593Z,34.28
2023-04-08T00:25:31.918Z,33.30
2023-04-08T00:27:58.988Z,33.00
2023-04-08T00:30:27.509Z,35.00
2023-04-08T00:32:54.925Z,33.72
2023-04-08T00:35:22.143Z,33.83
2023-04-08T00:37:49.937Z,34.72
2023-04-08T00:40:16.984Z,32.88
2023-04-08T00:42:44.020Z,34.30
2023-04-08T00:45:11.651Z,35.33
2023-04-08T00:47:38.700Z,34.67
2023-04-08T00:50:09.790Z,35.53
2023-04-08T00:52:36.857Z,34.60
2023-04-08T00:55:04.160Z,33.97
2023-04-08T00:57:31.227Z,33.42
2023-04-08T00:59:58.941Z,32.58
2023-04-08T01:02:51.448Z,33.40
2023-04-08T01:05:18.478Z,32.67
2023-04-08T01:07:48.378Z,34.42
2023-04-08T01:10:24.201Z,34.03
2023-04-08T01:12:56.177Z,33.28
2023-04-08T01:15:26.404Z,34.47
2023-04-08T01:17:55.216Z,33.25
2023-04-08T01:20:24.334Z,34.40
2023-04-08T01:23:06.874Z,35.22
2023-04-08T01:25:39.147Z,34.70
2023-04-08T01:28:12.422Z,34.33
2023-04-08T01:30:41.031Z,36.00
2023-04-08T01:33:10.353Z,36.72
2023-04-08T01:35:37.713Z,36.63
2023-04-08T01:38:07.006Z,36.55
2023-04-08T01:40:35.894Z,36.72
2023-04-08T01:43:04.053Z,38.03
2023-04-08T01:45:31.393Z,36.28
2023-04-08T01:48:00.141Z,36.35
2023-04-08T01:50:29.055Z,36.42
2023-04-08T01:52:58.057Z,36.45
2023-04-08T01:55:26.173Z,39.00
2023-04-08T01:57:54.421Z,37.42
2023-04-08T02:00:26.040Z,37.58
2023-04-08T02:02:54.884Z,36.75
2023-04-08T02:05:22.301Z,36.70
2023-04-08T02:07:49.307Z,37.03
2023-04-08T02:10:16.448Z,37.72
2023-04-08T02:12:44.793Z,37.50
2023-04-08T02:15:13.507Z,37.08
2023-04-08T02:17:51.139Z,36.78
2023-04-08T02:20:27.083Z,37.17
2023-04-08T02:23:03.274Z,36.45
2023-04-08T02:25:31.062Z,36.03
2023-04-08T02:28:01.452Z,36.95
2023-04-08T02:30:29.482Z,36.78
2023-04-08T02:32:58.418Z,36.83
2023-04-08T02:35:26.664Z,36.67
2023-04-08T02:37:53.647Z,37.20
2023-04-08T02:40:28.405Z,37.13
2023-04-08T02:42:55.781Z,36.88
2023-04-08T02:45:24.779Z,35.30
2023-04-08T02:47:52.039Z,35.40
2023-04-08T02:50:19.031Z,36.60
2023-04-08T02:52:46.012Z,35.42
2023-04-08T02:55:13.082Z,36.40
2023-04-08T02:57:42.356Z,34.88
2023-04-08T03:00:10.017Z,36.65
2023-04-08T03:02:37.264Z,33.95
2023-04-08T03:05:05.716Z,35.38
2023-04-08T03:07:33.535Z,35.55
2023-04-08T03:10:00.577Z,35.95
2023-04-08T03:12:28.226Z,36.65
2023-04-08T03:14:55.209Z,36.17
2023-04-08T03:17:22.245Z,37.22
2023-04-08T03:19:49.344Z,35.35
2023-04-08T03:22:16.431Z,35.92
2023-04-08T03:24:43.422Z,36.17
2023-04-08T03:27:10.613Z,35.60
2023-04-08T03:29:37.563Z,36.90
2023-04-08T03:32:05.049Z,36.85
2023-04-08T03:34:32.225Z,37.15
2023-04-08T03:36:59.180Z,36.72
2023-04-08T03:39:26.326Z,37.42
2023-04-08T03:41:53.319Z,36.45
2023-04-08T03:44:20.398Z,36.63
2023-04-08T03:46:47.352Z,35.80
2023-04-08T03:49:14.290Z,36.00
2023-04-08T03:51:41.321Z,36.22
2023-04-08T03:54:08.871Z,37.38
2023-04-08T03:56:35.921Z,37.85
2023-04-08T03:59:02.998Z,35.88
2023-04-08T04:01:32.505Z,36.65
2023-04-08T04:04:07.168Z,35.53
2023-04-08T04:06:34.475Z,35.92
2023-04-08T04:09:11.817Z,35.03
2023-04-08T04:11:38.907Z,36.45
2023-04-08T04:14:07.121Z,35.42
2023-04-08T04:16:34.158Z,36.28
2023-04-08T04:19:01.345Z,35.90
2023-04-08T04:21:31.061Z,37.63
2023-04-08T04:23:58.099Z,35.83
2023-04-08T04:26:27.259Z,35.60
2023-04-08T04:28:58.787Z,36.65
2023-04-08T04:31:29.668Z,35.97
2023-04-08T04:33:56.754Z,36.85
2023-04-08T04:36:23.908Z,36.55
2023-04-08T04:38:51.900Z,37.28
2023-04-08T04:41:20.627Z,38.00
2023-04-08T04:43:50.110Z,36.17
2023-04-08T04:46:23.157Z,36.83
2023-04-08T04:48:52.888Z,36.33
2023-04-08T04:51:22.229Z,36.88
2023-04-08T04:53:53.755Z,37.42
2023-04-08T04:56:21.751Z,37.47
2023-04-08T04:58:49.100Z,36.60
2023-04-08T05:01:16.361Z,36.58
2023-04-08T05:03:43.400Z,36.45
2023-04-08T05:06:10.464Z,35.47
2023-04-08T05:08:37.503Z,36.80
2023-04-08T05:11:04.545Z,35.25
2023-04-08T05:13:32.838Z,36.38
2023-04-08T05:16:00.056Z,36.65
2023-04-08T05:18:27.035Z,37.67
2023-04-08T05:20:54.022Z,36.40
2023-04-08T05:23:20.998Z,38.22
2023-04-08T05:25:47.982Z,36.85
2023-04-08T05:28:15.086Z,37.25
2023-04-08T05:30:42.162Z,37.45
2023-04-08T05:33:09.136Z,36.85
2023-04-08T05:35:36.312Z,37.90
2023-04-08T05:38:03.247Z,37.90
2023-04-08T05:40:30.397Z,36.75
2023-04-08T05:42:57.338Z,36.85
2023-04-08T05:45:24.354Z,37.78
2023-04-08T05:47:51.665Z,37.58
2023-04-08T05:50:18.695Z,37.35
2023-04-08T05:52:45.923Z,36.88
2023-04-08T05:55:14.105Z,38.75
2023-04-08T05:57:41.642Z,37.75
2023-04-08T06:00:10.720Z,36.88
2023-04-08T06:02:38.695Z,37.53
2023-04-08T06:05:06.709Z,37.63
2023-04-08T06:07:34.228Z,35.95
2023-04-08T06:10:01.317Z,35.58
2023-04-08T06:12:28.360Z,36.90
2023-04-08T06:14:56.519Z,36.28
2023-04-08T06:17:23.907Z,35.22
2023-04-08T06:19:51.132Z,35.03
2023-04-08T06:22:18.078Z,34.67
2023-04-08T06:24:47.175Z,35.03
2023-04-08T06:27:14.330Z,36.47
2023-04-08T06:29:42.957Z,35.15
2023-04-08T06:32:10.627Z,34.42
2023-04-08T06:34:38.156Z,33.55
2023-04-08T06:37:06.408Z,32.50
2023-04-08T06:39:33.826Z,32.38
2023-04-08T06:42:00.779Z,33.03
2023-04-08T06:44:27.725Z,31.52
2023-04-08T06:46:54.740Z,32.67
2023-04-08T06:49:21.842Z,31.10
2023-04-08T06:51:49.142Z,32.72
2023-04-08T06:54:16.249Z,30.17
2023-04-08T06:56:43.237Z,31.65
2023-04-08T06:59:10.173Z,32.55
2023-04-08T07:01:37.289Z,29.20
2023-04-08T07:04:04.394Z,41.58
2023-04-08T07:06:31.477Z,34.58
2023-04-08T07:08:58.491Z,30.27
2023-04-08T07:11:26.463Z,28.58
2023-04-08T07:13:53.454Z,28.38
2023-04-08T07:16:20.565Z,28.40
2023-04-08T07:18:47.950Z,28.23
2023-04-08T07:21:14.996Z,27.25
2023-04-08T07:23:41.996Z,29.35
2023-04-08T07:26:09.425Z,32.47
2023-04-08T07:28:36.415Z,32.40
2023-04-08T07:31:14.506Z,32.67
2023-04-08T07:33:41.833Z,31.45
2023-04-08T07:36:13.877Z,32.20
2023-04-08T07:38:41.097Z,32.78
2023-04-08T07:41:08.116Z,30.85
2023-04-08T07:43:37.461Z,29.20
2023-04-08T07:46:05.648Z,30.90
2023-04-08T07:48:33.571Z,29.48
2023-04-08T07:51:10.914Z,26.77
2023-04-08T07:53:39.541Z,25.77
2023-04-08T07:56:13.847Z,25.15
2023-04-08T07:58:41.775Z,24.58
2023-04-08T08:01:23.110Z,25.73
2023-04-08T08:03:52.975Z,26.15
2023-04-08T08:06:21.007Z,25.85
2023-04-08T08:08:48.365Z,25.58
2023-04-08T08:11:15.667Z,26.70
2023-04-08T08:13:43.349Z,26.48
2023-04-08T08:16:12.247Z,24.48
2023-04-08T08:18:40.756Z,26.08
2023-04-08T08:21:09.038Z,25.15
2023-04-08T08:23:41.152Z,23.80
2023-04-08T08:26:11.253Z,24.98
2023-04-08T08:28:40.072Z,25.40
2023-04-08T08:31:07.762Z,23.33
2023-04-08T08:33:35.255Z,24.35
2023-04-08T08:38:52.249Z,23.58
2023-04-08T08:41:46.805Z,23.25
2023-04-08T08:44:14.428Z,23.90
2023-04-08T08:46:44.953Z,24.40
2023-04-08T08:49:13.317Z,25.52
2023-04-08T08:51:42.166Z,23.55
2023-04-08T08:54:09.353Z,23.13
2023-04-08T08:56:36.527Z,23.85
2023-04-08T08:59:06.809Z,23.92
2023-04-08T09:01:43.798Z,23.17
2023-04-08T09:04:19.453Z,23.23
2023-04-08T09:06:50.342Z,22.98
2023-04-08T09:09:18.022Z,22.55
2023-04-08T09:11:47.770Z,23.35
2023-04-08T09:14:25.885Z,24.25
2023-04-08T09:16:53.629Z,24.48
2023-04-08T09:19:21.186Z,23.15
2023-04-08T09:22:08.209Z,24.08
2023-04-08T09:24:37.282Z,24.85
2023-04-08T09:27:05.808Z,22.38
2023-04-08T09:29:35.938Z,22.08
2023-04-08T09:32:05.482Z,25.50
2023-04-08T09:34:34.497Z,23.73
2023-04-08T09:37:02.066Z,22.83
2023-04-08T09:39:29.057Z,25.50
2023-04-08T09:42:01.545Z,30.17
2023-04-08T09:44:31.311Z,26.58
2023-04-08T09:47:26.106Z,25.20
2023-04-08T09:52:32.229Z,22.98
2023-04-08T09:55:08.756Z,24.27
2023-04-08T09:57:46.856Z,22.58
2023-04-08T10:00:16.356Z,22.50
2023-04-08T10:03:00.874Z,23.13
2023-04-08T10:05:28.347Z,22.58
2023-04-08T10:07:57.369Z,22.75
2023-04-08T10:10:25.598Z,22.95
2023-04-08T10:12:52.967Z,23.08
2023-04-08T10:15:26.446Z,21.17
2023-04-08T10:17:55.520Z,23.30
2023-04-08T10:20:34.787Z,21.70
2023-04-08T10:23:02.121Z,22.25
2023-04-08T10:25:34.966Z,22.75
2023-04-08T10:28:19.931Z,22.15
2023-04-08T10:30:47.440Z,22.67
2023-04-08T10:33:29.690Z,23.33
2023-04-08T10:36:13.544Z,22.83
2023-04-08T10:38:42.814Z,22.98
2023-04-08T10:41:21.755Z,22.40
2023-04-08T10:43:49.130Z,21.95
2023-04-08T10:46:17.414Z,22.15
2023-04-08T10:48:45.061Z,22.52
2023-04-08T10:51:12.225Z,21.77
2023-04-08T10:53:40.123Z,21.38
2023-04-08T10:56:09.368Z,21.60
2023-04-08T10:58:37.113Z,21.65
2023-04-08T11:01:08.573Z,22.38
2023-04-08T11:03:37.502Z,22.30
2023-04-08T11:06:05.114Z,21.30
2023-04-08T11:08:33.624Z,21.60
2023-04-08T11:11:02.263Z,22.02
2023-04-08T11:13:29.744Z,21.83
2023-04-08T11:16:00.520Z,21.50
2023-04-08T11:18:28.843Z,20.73
2023-04-08T11:20:57.685Z,22.20
2023-04-08T11:23:26.500Z,20.70
2023-04-08T11:25:54.003Z,20.25
2023-04-08T11:28:21.510Z,20.50
2023-04-08T11:30:48.726Z,20.90
2023-04-08T11:33:15.827Z,20.50
2023-04-08T11:35:44.257Z,20.38
2023-04-08T11:38:12.283Z,20.38
2023-04-08T11:40:39.525Z,20.80
2023-04-08T11:43:17.182Z,21.48
2023-04-08T11:45:44.264Z,22.80
2023-04-08T11:48:12.597Z,24.50
2023-04-08T11:50:39.948Z,25.77
2023-04-08T11:53:25.604Z,25.17
2023-04-08T11:55:53.105Z,22.65
2023-04-08T11:58:20.065Z,21.75
2023-04-08T12:00:47.687Z,21.45
2023-04-08T12:03:14.778Z,21.42
2023-04-08T12:05:42.764Z,22.20
2023-04-08T12:08:09.925Z,22.25
2023-04-08T12:10:36.884Z,21.20
2023-04-08T12:13:03.839Z,21.33
2023-04-08T12:15:30.885Z,22.60
2023-04-08T12:17:57.909Z,21.63
2023-04-08T12:20:25.060Z,22.48
2023-04-08T12:22:51.983Z,21.75
2023-04-08T12:25:19.052Z,22.55
2023-04-08T12:27:46.025Z,21.90
2023-04-08T12:30:15.316Z,22.20
2023-04-08T12:32:46.137Z,21.75
2023-04-08T12:35:13.347Z,22.17
2023-04-08T12:37:40.633Z,22.20
2023-04-08T12:40:08.344Z,22.10
2023-04-08T12:42:35.817Z,21.98
2023-04-08T12:45:02.752Z,21.95
2023-04-08T12:47:29.888Z,20.60
2023-04-08T12:49:56.938Z,24.17
2023-04-08T12:52:24.283Z,19.92
2023-04-08T12:54:51.327Z,20.70
2023-04-08T12:57:18.253Z,20.27
2023-04-08T12:59:45.228Z,20.55
2023-04-08T13:02:12.375Z,20.25
2023-04-08T13:04:39.885Z,21.23
2023-04-08T13:07:07.800Z,21.77
2023-04-08T13:09:35.391Z,23.33
2023-04-08T13:12:03.765Z,26.20
2023-04-08T13:14:30.833Z,27.70
2023-04-08T13:16:58.200Z,27.95
2023-04-08T13:19:25.212Z,29.23
2023-04-08T13:21:52.213Z,26.02
2023-04-08T13:24:19.167Z,27.13
2023-04-08T13:26:46.334Z,28.95
2023-04-08T13:29:13.260Z,30.73
2023-04-08T13:31:41.020Z,29.10
2023-04-08T13:34:08.031Z,29.00
2023-04-08T13:36:35.143Z,26.02
2023-04-08T13:39:02.141Z,24.95
2023-04-08T13:41:29.202Z,22.50
2023-04-08T13:43:56.956Z,22.60
2023-04-08T13:46:24.171Z,23.83
2023-04-08T13:48:51.504Z,23.95
2023-04-08T13:51:18.830Z,23.58
2023-04-08T13:53:45.818Z,22.83
2023-04-08T13:56:12.797Z,22.88
2023-04-08T13:58:39.800Z,21.67
2023-04-08T14:01:07.064Z,21.58
2023-04-08T14:03:34.031Z,21.00
2023-04-08T14:06:02.050Z,21.00
2023-04-08T14:08:29.129Z,21.02
2023-04-08T14:10:57.313Z,21.48
2023-04-08T14:13:24.386Z,20.50
2023-04-08T14:15:53.754Z,19.80
2023-04-08T14:18:21.015Z,21.00
2023-04-08T14:20:47.951Z,21.15
2023-04-08T14:23:14.950Z,21.05
2023-04-08T14:25:41.898Z,20.63
2023-04-08T14:28:08.909Z,20.88
2023-04-08T14:30:36.781Z,20.98
2023-04-08T14:33:05.347Z,21.48
2023-04-08T14:35:34.132Z,20.67
2023-04-08T14:38:01.599Z,26.77
2023-04-08T14:40:28.714Z,23.05
2023-04-08T14:42:56.044Z,23.73
2023-04-08T14:45:23.122Z,22.27
2023-04-08T14:47:50.158Z,21.98
2023-04-08T14:50:17.244Z,21.35
2023-04-08T14:52:45.405Z,21.48
2023-04-08T14:55:12.503Z,21.55
2023-04-08T14:57:39.515Z,21.25
2023-04-08T15:00:08.933Z,21.30
2023-04-08T15:02:36.085Z,20.40
2023-04-08T15:05:03.341Z,19.58
2023-04-08T15:07:30.379Z,19.85
2023-04-08T15:09:57.313Z,20.35
2023-04-08T15:12:24.655Z,19.73
2023-04-08T15:14:51.762Z,20.83
2023-04-08T15:17:18.856Z,20.55
2023-04-08T15:19:46.429Z,22.00
2023-04-08T15:22:13.474Z,22.35
2023-04-08T15:24:40.705Z,23.10
2023-04-08T15:27:08.317Z,22.85
2023-04-08T15:29:35.474Z,21.80
2023-04-08T15:32:02.616Z,21.52
2023-04-08T15:34:29.677Z,21.48
2023-04-08T15:36:57.305Z,22.25
2023-04-08T15:39:24.622Z,21.42
2023-04-08T15:41:51.610Z,21.33
2023-04-08T15:44:18.627Z,21.98
2023-04-08T15:46:45.679Z,22.63
2023-04-08T15:49:12.662Z,22.15
2023-04-08T15:51:39.759Z,22.33
2023-04-08T15:54:06.741Z,21.50
2023-04-08T15:56:33.872Z,21.05
2023-04-08T15:59:00.858Z,20.90
2023-04-08T16:01:27.825Z,21.52
2023-04-08T16:06:51.994Z,21.50
2023-04-08T16:09:22.648Z,20.73
2023-04-08T16:11:50.482Z,21.65
2023-04-08T16:14:18.422Z,21.77
2023-04-08T16:16:45.430Z,21.65
2023-04-08T16:19:12.570Z,20.98
2023-04-08T16:21:39.617Z,22.05
2023-04-08T16:24:07.054Z,22.98
2023-04-08T16:26:34.300Z,22.15
2023-04-08T16:29:01.263Z,22.17
2023-04-08T16:31:28.346Z,22.23
2023-04-08T16:33:55.315Z,22.45
2023-04-08T16:36:22.277Z,22.40
2023-04-08T16:38:49.260Z,22.33
2023-04-08T16:41:16.453Z,22.95
2023-04-08T16:43:43.381Z,22.40
2023-04-08T16:46:16.903Z,22.08
2023-04-08T16:48:45.001Z,22.05
2023-04-08T16:51:12.029Z,22.92
2023-04-08T16:53:38.990Z,22.30
2023-04-08T16:56:12.289Z,29.50
2023-04-08T16:58:39.288Z,27.83
2023-04-08T17:01:10.667Z,22.13
2023-04-08T17:03:37.994Z,21.58
2023-04-08T17:06:13.692Z,21.77
2023-04-08T17:08:44.141Z,22.73
2023-04-08T17:11:13.456Z,23.15
2023-04-08T17:13:42.159Z,23.08
2023-04-08T17:16:17.657Z,23.23
2023-04-08T17:18:45.342Z,23.40
2023-04-08T17:21:14.133Z,22.67
2023-04-08T17:23:41.223Z,23.88
2023-04-08T17:26:09.883Z,22.10
2023-04-08T17:28:37.067Z,22.30
2023-04-08T17:31:04.205Z,22.55
2023-04-08T17:33:31.422Z,22.60
2023-04-08T17:35:58.742Z,22.67
2023-04-08T17:38:25.726Z,23.15
2023-04-08T17:40:52.955Z,22.80
2023-04-08T17:43:19.912Z,23.10
2023-04-08T17:45:47.076Z,24.45
2023-04-08T17:48:14.125Z,23.40
2023-04-08T17:50:41.153Z,25.58
2023-04-08T17:53:08.104Z,23.88
2023-04-08T17:55:35.183Z,24.55
2023-04-08T17:58:02.359Z,24.42
2023-04-08T18:00:30.218Z,24.20
2023-04-08T18:02:57.431Z,24.80
2023-04-08T18:05:24.512Z,23.60
2023-04-08T18:07:51.670Z,23.15
2023-04-08T18:10:18.832Z,23.98
2023-04-08T18:12:45.972Z,24.63
2023-04-08T18:15:13.283Z,24.10
2023-04-08T18:17:40.316Z,25.10
2023-04-08T18:20:08.017Z,25.60
2023-04-08T18:22:35.030Z,26.83
2023-04-08T18:25:01.972Z,32.95
2023-04-08T18:27:28.964Z,29.90
2023-04-08T18:29:56.074Z,29.38
2023-04-08T18:32:23.094Z,29.63
2023-04-08T18:34:53.863Z,32.40
2023-04-08T18:37:21.782Z,32.67
2023-04-08T18:39:49.216Z,30.10
2023-04-08T18:42:16.321Z,28.23
2023-04-08T18:44:43.412Z,27.65
2023-04-08T18:47:11.212Z,27.70
2023-04-08T18:49:38.768Z,25.90
2023-04-08T18:52:06.846Z,26.63
2023-04-08T18:54:33.978Z,27.27
2023-04-08T18:57:01.676Z,28.20
2023-04-08T18:59:28.698Z,26.60
2023-04-08T19:01:56.106Z,30.40
2023-04-08T19:04:23.627Z,24.80
2023-04-08T19:06:51.585Z,26.85
2023-04-08T19:09:19.885Z,28.20
2023-04-08T19:11:48.452Z,24.63
2023-04-08T19:14:15.785Z,26.17
2023-04-08T19:16:42.718Z,32.78
2023-04-08T19:19:09.719Z,35.20
2023-04-08T19:21:37.959Z,31.88
2023-04-08T19:24:06.411Z,27.63
2023-04-08T19:26:33.928Z,25.25
2023-04-08T19:29:01.343Z,25.58
2023-04-08T19:31:28.568Z,24.35
2023-04-08T19:33:55.949Z,28.17
2023-04-08T19:36:22.953Z,28.40
2023-04-08T19:38:49.948Z,26.10
2023-04-08T19:41:17.076Z,23.75
2023-04-08T19:43:44.204Z,24.90
2023-04-08T19:46:11.183Z,24.98
2023-04-08T19:48:38.180Z,25.10
2023-04-08T19:51:05.395Z,25.83
2023-04-08T19:53:32.389Z,25.67
2023-04-08T19:56:02.967Z,26.20
2023-04-08T19:58:30.009Z,26.27
2023-04-08T20:00:57.026Z,26.60
2023-04-08T20:03:24.249Z,25.88
2023-04-08T20:05:51.351Z,26.52
2023-04-08T20:08:18.382Z,26.75
2023-04-08T20:10:46.593Z,26.55
2023-04-08T20:13:14.687Z,25.95
2023-04-08T20:15:41.845Z,25.65
2023-04-08T20:18:10.045Z,25.25
2023-04-08T20:20:37.242Z,25.05
2023-04-08T20:23:04.511Z,24.50
2023-04-08T20:25:31.654Z,24.33
2023-04-08T20:27:58.840Z,24.67
2023-04-08T20:30:25.848Z,25.10
2023-04-08T20:32:52.952Z,24.33
2023-04-08T20:35:20.020Z,24.17
2023-04-08T20:37:47.637Z,24.17
2023-04-08T20:40:16.441Z,24.90
2023-04-08T20:42:45.241Z,25.25
2023-04-08T20:45:12.351Z,24.77
2023-04-08T20:47:39.435Z,26.48
2023-04-08T20:50:07.498Z,24.98
2023-04-08T20:52:34.492Z,23.52
2023-04-08T20:55:01.495Z,23.13
2023-04-08T20:57:28.490Z,23.88
2023-04-08T20:59:56.216Z,24.17
2023-04-08T21:02:24.442Z,23.15
2023-04-08T21:04:51.516Z,23.92
2023-04-08T21:07:18.603Z,22.60
2023-04-08T21:09:48.612Z,22.25
2023-04-08T21:12:15.681Z,22.27
2023-04-08T21:14:45.297Z,22.50
2023-04-08T21:17:12.251Z,21.73
2023-04-08T21:19:39.398Z,21.33
2023-04-08T21:22:06.547Z,21.52
2023-04-08T21:24:33.518Z,21.48
2023-04-08T21:27:01.405Z,21.08
2023-04-08T21:29:28.391Z,21.30
2023-04-08T21:31:55.798Z,21.25
2023-04-08T21:34:22.848Z,20.00
2023-04-08T21:36:49.777Z,20.75
2023-04-08T21:39:16.982Z,20.98
2023-04-08T21:41:43.934Z,21.02
2023-04-08T21:44:10.987Z,21.25
2023-04-08T21:46:38.007Z,22.27
2023-04-08T21:49:04.984Z,22.45
2023-04-08T21:51:32.093Z,23.27
2023-04-08T21:53:59.026Z,23.05
2023-04-08T21:56:26.117Z,23.38
2023-04-08T21:58:53.308Z,23.90
2023-04-08T22:01:20.700Z,26.10
2023-04-08T22:03:47.777Z,26.30
2023-04-08T22:06:25.605Z,24.25
2023-04-08T22:08:58.438Z,23.27
2023-04-08T22:11:25.412Z,23.08
2023-04-08T22:13:52.451Z,23.13
2023-04-08T22:16:19.415Z,23.48
2023-04-08T22:18:46.696Z,23.40
2023-04-08T22:21:13.844Z,23.95
2023-04-08T22:23:40.826Z,23.40
2023-04-08T22:26:07.793Z,24.25
2023-04-08T22:28:34.872Z,24.48
2023-04-08T22:31:01.870Z,25.48
2023-04-08T22:33:28.946Z,25.33
2023-04-08T22:35:57.592Z,26.63
2023-04-08T22:38:24.730Z,25.23
2023-04-08T22:40:53.214Z,25.20
2023-04-08T22:43:20.615Z,25.75
2023-04-08T22:45:47.684Z,24.55
2023-04-08T22:48:14.695Z,24.20
2023-04-08T22:50:42.304Z,25.13
2023-04-08T22:53:09.641Z,28.00
2023-04-08T22:55:36.658Z,33.30
2023-04-08T22:58:03.607Z,35.40
2023-04-08T23:00:30.806Z,31.85
2023-04-08T23:02:58.035Z,27.77
2023-04-08T23:05:25.120Z,25.67
2023-04-08T23:07:52.073Z,24.67
2023-04-08T23:10:19.126Z,24.75
2023-04-08T23:12:46.179Z,23.65
2023-04-08T23:15:13.472Z,23.50
2023-04-08T23:17:40.518Z,22.95
2023-04-08T23:20:08.096Z,23.83
2023-04-08T23:22:35.115Z,24.25
2023-04-08T23:25:02.120Z,29.58
2023-04-08T23:27:29.223Z,24.42
2023-04-08T23:29:56.141Z,23.60
2023-04-08T23:32:23.161Z,24.50
2023-04-08T23:34:50.392Z,24.40
2023-04-08T23:37:17.438Z,23.35
2023-04-08T23:39:44.421Z,24.70
2023-04-08T23:42:11.424Z,25.63
2023-04-08T23:44:38.344Z,26.48
2023-04-08T23:47:05.457Z,26.20
2023-04-08T23:49:32.366Z,26.23
2023-04-08T23:51:59.328Z,25.00
2023-04-08T23:54:30.460Z,24.83
2023-04-08T23:56:57.522Z,24.55
2023-04-08T23:59:24.560Z,25.02
